createdAt,value
2018-04-29T00:00:57.983Z,15.33
2018-04-29T00:03:27.784Z,16.27
2018-04-29T00:05:57.595Z,17.20
2018-04-29T00:08:27.415Z,17.10
2018-04-29T00:10:57.243Z,17.10
2018-04-29T00:13:27.072Z,16.17
2018-04-29T00:15:56.877Z,17.40
2018-04-29T00:18:26.700Z,16.10
2018-04-29T00:20:57.276Z,17.63
2018-04-29T00:23:27.873Z,16.20
2018-04-29T00:25:57.683Z,15.97
2018-04-29T00:28:28.265Z,17.10
2018-04-29T00:30:58.086Z,16.47
2018-04-29T00:33:27.901Z,16.80
2018-04-29T00:35:57.709Z,16.23
2018-04-29T00:38:27.526Z,17.37
2018-04-29T00:40:57.331Z,16.97
2018-04-29T00:43:27.150Z,16.93
2018-04-29T00:45:56.968Z,16.63
2018-04-29T00:48:26.788Z,16.00
2018-04-29T00:50:56.602Z,16.97
2018-04-29T00:53:26.415Z,18.60
2018-04-29T00:55:56.223Z,17.93
2018-04-29T00:58:26.037Z,17.00
2018-04-29T01:00:55.832Z,16.33
2018-04-29T01:03:25.662Z,15.20
2018-04-29T01:05:55.556Z,15.60
2018-04-29T01:08:25.321Z,17.03
2018-04-29T01:10:55.123Z,17.40
2018-04-29T01:13:24.952Z,16.97
2018-04-29T01:15:54.764Z,17.53
2018-04-29T01:18:24.584Z,16.53
2018-04-29T01:20:54.385Z,17.83
2018-04-29T01:23:24.196Z,18.10
2018-04-29T01:25:54.013Z,19.47
2018-04-29T01:28:23.824Z,19.20
2018-04-29T01:30:53.645Z,18.03
2018-04-29T01:33:23.452Z,19.47
2018-04-29T01:35:53.267Z,19.00
2018-04-29T01:38:23.083Z,19.33
2018-04-29T01:40:52.898Z,18.70
2018-04-29T01:43:22.720Z,18.13
2018-04-29T01:45:52.525Z,19.20
2018-04-29T01:48:22.343Z,17.97
2018-04-29T01:50:52.174Z,19.40
2018-04-29T01:53:21.993Z,18.83
2018-04-29T01:55:51.797Z,18.17
2018-04-29T01:58:22.537Z,18.30
2018-04-29T02:00:52.352Z,18.87
2018-04-29T02:03:22.165Z,18.40
2018-04-29T02:05:51.984Z,18.50
2018-04-29T02:08:21.808Z,18.23
2018-04-29T02:10:51.616Z,19.90
2018-04-29T02:13:21.427Z,20.40
2018-04-29T02:15:51.232Z,21.43
2018-04-29T02:18:21.048Z,21.43
2018-04-29T02:20:50.868Z,19.57
2018-04-29T02:23:20.675Z,19.63
2018-04-29T02:25:50.479Z,18.77
2018-04-29T02:28:20.312Z,18.83
2018-04-29T02:30:50.111Z,18.60
2018-04-29T02:33:19.937Z,18.30
2018-04-29T02:35:50.517Z,19.17
2018-04-29T02:38:20.326Z,18.93
2018-04-29T02:40:50.213Z,20.70
2018-04-29T02:43:19.965Z,20.90
2018-04-29T02:45:49.787Z,22.07
2018-04-29T02:48:19.606Z,21.67
2018-04-29T02:50:49.423Z,21.77
2018-04-29T02:53:19.258Z,21.37
2018-04-29T02:55:49.837Z,21.07
2018-04-29T02:58:19.668Z,20.87
2018-04-29T03:00:49.493Z,21.73
2018-04-29T03:03:19.308Z,20.63
2018-04-29T03:05:49.129Z,21.43
2018-04-29T03:08:18.932Z,21.20
2018-04-29T03:10:48.749Z,20.97
2018-04-29T03:13:18.551Z,19.73
2018-04-29T03:15:48.375Z,21.27
2018-04-29T03:18:18.193Z,20.90
2018-04-29T03:20:48.778Z,21.23
2018-04-29T03:23:18.608Z,21.23
2018-04-29T03:25:48.422Z,20.40
2018-04-29T03:28:18.232Z,18.90
2018-04-29T03:30:48.056Z,20.67
2018-04-29T03:33:17.868Z,20.77
2018-04-29T03:35:47.689Z,20.00
2018-04-29T03:38:17.509Z,20.87
2018-04-29T03:40:48.113Z,18.83
2018-04-29T03:43:17.919Z,20.13
2018-04-29T03:45:47.736Z,17.40
2018-04-29T03:48:17.540Z,18.60
2018-04-29T03:50:47.411Z,17.73
2018-04-29T03:53:17.965Z,20.67
2018-04-29T03:55:47.786Z,17.70
2018-04-29T04:01:51.280Z,19.53
2018-04-29T04:04:18.548Z,17.40
2018-04-29T04:06:48.363Z,21.30
2018-04-29T04:09:18.163Z,22.63
2018-04-29T04:11:47.964Z,20.43
2018-04-29T04:14:17.795Z,20.70
2018-04-29T04:16:47.600Z,19.67
2018-04-29T04:19:17.408Z,18.93
2018-04-29T04:21:47.215Z,19.57
2018-04-29T04:24:17.052Z,20.20
2018-04-29T04:26:46.866Z,20.03
2018-04-29T04:29:16.683Z,19.53
2018-04-29T04:31:46.488Z,20.73
2018-04-29T04:34:16.400Z,20.67
2018-04-29T04:36:46.145Z,19.40
2018-04-29T04:39:15.945Z,19.27
2018-04-29T04:41:45.781Z,17.57
2018-04-29T04:44:15.595Z,16.70
2018-04-29T04:46:45.420Z,16.63
2018-04-29T04:49:15.997Z,17.57
2018-04-29T04:51:45.804Z,15.67
2018-04-29T04:54:16.372Z,16.93
2018-04-29T04:56:46.188Z,17.70
2018-04-29T04:59:16.000Z,23.20
2018-04-29T05:01:45.821Z,20.30
2018-04-29T05:04:15.626Z,20.70
2018-04-29T05:06:45.444Z,19.20
2018-04-29T05:09:15.251Z,22.70
2018-04-29T05:11:45.059Z,20.53
2018-04-29T05:14:14.871Z,21.13
2018-04-29T05:16:44.680Z,21.20
2018-04-29T05:19:14.497Z,20.60
2018-04-29T05:21:44.324Z,22.27
2018-04-29T05:24:14.140Z,22.60
2018-04-29T05:26:44.721Z,22.10
2018-04-29T05:29:14.540Z,21.77
2018-04-29T05:31:44.349Z,22.20
2018-04-29T05:34:14.161Z,22.73
2018-04-29T05:36:43.971Z,23.20
2018-04-29T05:39:13.776Z,23.10
2018-04-29T05:41:43.600Z,21.23
2018-04-29T05:44:14.349Z,21.50
2018-04-29T05:46:44.183Z,21.13
2018-04-29T05:49:13.996Z,20.13
2018-04-29T05:51:43.812Z,19.13
2018-04-29T05:54:13.617Z,21.00
2018-04-29T05:56:43.453Z,19.67
2018-04-29T05:59:14.038Z,20.33
2018-04-29T06:01:43.855Z,20.53
2018-04-29T06:04:13.661Z,22.23
2018-04-29T06:06:43.550Z,19.37
2018-04-29T06:09:13.282Z,19.60
2018-04-29T06:11:43.101Z,21.00
2018-04-29T06:14:12.904Z,19.10
2018-04-29T06:16:42.725Z,18.53
2018-04-29T06:19:12.527Z,17.90
2018-04-29T06:21:42.352Z,14.60
2018-04-29T06:24:12.155Z,14.10
2018-04-29T06:26:41.974Z,13.63
2018-04-29T06:29:11.789Z,12.87
2018-04-29T06:31:41.611Z,13.40
2018-04-29T06:34:11.415Z,13.30
2018-04-29T06:36:41.235Z,12.07
2018-04-29T06:39:11.041Z,10.83
2018-04-29T06:41:40.843Z,9.37
2018-04-29T06:44:10.659Z,8.27
2018-04-29T06:46:40.464Z,9.40
2018-04-29T06:49:10.261Z,9.20
2018-04-29T06:51:40.067Z,8.10
2018-04-29T06:54:09.867Z,8.57
2018-04-29T06:56:39.689Z,8.50
2018-04-29T06:59:09.471Z,8.57
2018-04-29T07:01:40.035Z,7.93
2018-04-29T07:04:09.841Z,11.27
2018-04-29T07:06:39.671Z,8.67
2018-04-29T07:09:09.510Z,8.50
2018-04-29T07:11:39.312Z,7.93
2018-04-29T07:14:09.170Z,9.20
2018-04-29T07:16:38.909Z,10.70
2018-04-29T07:19:08.719Z,9.03
2018-04-29T07:21:38.528Z,9.13
2018-04-29T07:24:08.323Z,9.00
2018-04-29T07:26:38.892Z,9.97
2018-04-29T07:29:08.696Z,9.00
2018-04-29T07:31:38.504Z,9.63
2018-04-29T07:34:08.350Z,9.53
2018-04-29T07:36:38.118Z,10.90
2018-04-29T07:39:07.912Z,11.57
2018-04-29T07:41:37.728Z,8.93
2018-04-29T07:44:07.540Z,8.33
2018-04-29T07:46:37.357Z,9.10
2018-04-29T07:49:07.147Z,8.00
2018-04-29T07:51:37.724Z,7.70
2018-04-29T07:54:07.529Z,7.97
2018-04-29T07:56:37.679Z,8.43
2018-04-29T07:59:07.461Z,7.90
2018-04-29T08:01:37.267Z,8.57
2018-04-29T08:04:07.061Z,9.33
2018-04-29T08:06:37.650Z,10.33
2018-04-29T08:09:07.437Z,8.70
2018-04-29T08:11:37.239Z,8.27
2018-04-29T08:14:07.032Z,9.63
2018-04-29T08:16:37.380Z,10.20
2018-04-29T08:19:07.289Z,10.57
2018-04-29T08:21:37.091Z,9.73
2018-04-29T08:24:06.892Z,9.93
2018-04-29T08:26:36.713Z,12.23
2018-04-29T08:29:06.506Z,10.03
2018-04-29T08:31:37.093Z,10.37
2018-04-29T08:34:06.904Z,12.43
2018-04-29T08:36:40.616Z,10.90
2018-04-29T08:39:10.436Z,11.57
2018-04-29T08:41:40.248Z,9.50
2018-04-29T08:44:10.040Z,11.67
2018-04-29T08:46:39.858Z,10.87
2018-04-29T08:49:09.665Z,10.60
2018-04-29T08:51:39.474Z,10.53
2018-04-29T08:54:09.273Z,9.63
2018-04-29T08:56:39.111Z,12.23
2018-04-29T08:59:08.920Z,11.33
2018-04-29T09:01:38.744Z,10.43
2018-04-29T09:04:08.545Z,9.93
2018-04-29T09:06:38.353Z,10.47
2018-04-29T09:09:08.172Z,10.30
2018-04-29T09:11:37.977Z,9.83
2018-04-29T09:14:07.781Z,10.43
2018-04-29T09:16:37.589Z,11.80
2018-04-29T09:19:07.403Z,10.23
2018-04-29T09:21:37.221Z,8.90
2018-04-29T09:24:07.015Z,9.80
2018-04-29T09:26:37.630Z,11.03
2018-04-29T09:29:07.480Z,10.13
2018-04-29T09:31:38.121Z,9.27
2018-04-29T09:34:08.692Z,8.43
2018-04-29T09:36:38.540Z,9.83
2018-04-29T09:39:08.360Z,8.00
2018-04-29T09:41:38.165Z,8.87
2018-04-29T09:44:07.973Z,8.40
2018-04-29T09:46:37.764Z,9.03
2018-04-29T09:49:07.582Z,9.40
2018-04-29T09:51:37.370Z,9.07
2018-04-29T09:54:07.188Z,11.43
2018-04-29T09:56:36.997Z,8.97
2018-04-29T09:59:07.592Z,8.17
2018-04-29T10:01:37.388Z,7.10
2018-04-29T10:04:07.187Z,8.93
2018-04-29T10:06:36.995Z,10.90
2018-04-29T10:09:07.564Z,8.80
2018-04-29T10:11:37.368Z,8.53
2018-04-29T10:14:07.184Z,7.47
2018-04-29T10:16:36.986Z,8.27
2018-04-29T10:19:06.907Z,8.47
2018-04-29T10:21:36.685Z,7.63
2018-04-29T10:24:06.484Z,8.63
2018-04-29T10:26:36.294Z,8.83
2018-04-29T10:29:06.871Z,6.53
2018-04-29T10:31:36.712Z,7.43
2018-04-29T10:34:07.304Z,7.63
2018-04-29T10:36:37.104Z,6.03
2018-04-29T10:39:07.016Z,5.33
2018-04-29T10:41:36.830Z,7.53
2018-04-29T10:44:06.628Z,7.13
2018-04-29T10:46:36.745Z,6.10
2018-04-29T10:49:07.307Z,6.30
2018-04-29T10:51:37.176Z,6.03
2018-04-29T10:54:07.297Z,5.97
2018-04-29T10:56:38.245Z,5.63
2018-04-29T10:59:11.489Z,5.57
2018-04-29T11:01:41.279Z,5.77
2018-04-29T11:04:11.244Z,7.67
2018-04-29T11:06:41.306Z,6.23
2018-04-29T11:09:11.550Z,7.30
2018-04-29T11:11:41.457Z,6.13
2018-04-29T11:14:12.049Z,6.80
2018-04-29T11:16:41.872Z,6.23
2018-04-29T11:19:12.310Z,5.50
2018-04-29T11:21:42.149Z,5.00
2018-04-29T11:24:11.940Z,7.13
2018-04-29T11:26:41.747Z,7.30
2018-04-29T11:29:11.562Z,6.97
2018-04-29T11:31:41.447Z,7.47
2018-04-29T11:34:12.012Z,8.50
2018-04-29T11:36:41.805Z,8.83
2018-04-29T11:39:11.627Z,7.97
2018-04-29T11:41:41.488Z,5.63
2018-04-29T11:44:11.276Z,8.23
2018-04-29T11:46:41.278Z,7.63
2018-04-29T11:49:11.072Z,32.17
2018-04-29T11:51:40.871Z,8.57
2018-04-29T11:54:10.670Z,8.53
2018-04-29T11:56:41.237Z,7.43
2018-04-29T11:59:11.077Z,6.50
2018-04-29T12:01:40.864Z,7.73
2018-04-29T12:04:10.684Z,6.13
2018-04-29T12:06:40.469Z,7.63
2018-04-29T12:09:10.292Z,6.30
2018-04-29T12:11:40.852Z,5.43
2018-04-29T12:14:10.664Z,9.03
2018-04-29T12:16:40.464Z,6.70
2018-04-29T12:19:10.265Z,5.93
2018-04-29T12:21:40.084Z,9.77
2018-04-29T12:24:09.881Z,7.93
2018-04-29T12:26:39.687Z,7.17
2018-04-29T12:29:09.502Z,10.00
2018-04-29T12:31:39.309Z,7.03
2018-04-29T12:34:09.111Z,7.10
2018-04-29T12:36:38.915Z,7.23
2018-04-29T12:39:09.485Z,6.77
2018-04-29T12:41:39.276Z,8.17
2018-04-29T12:44:09.088Z,7.23
2018-04-29T12:46:38.897Z,7.87
2018-04-29T12:49:08.698Z,7.37
2018-04-29T12:51:39.268Z,7.30
2018-04-29T12:54:09.078Z,5.93
2018-04-29T12:56:38.877Z,6.17
2018-04-29T12:59:09.445Z,5.93
2018-04-29T13:01:39.248Z,7.03
2018-04-29T13:04:09.055Z,5.60
2018-04-29T13:06:38.843Z,6.40
2018-04-29T13:09:08.649Z,5.67
2018-04-29T13:11:38.448Z,6.57
2018-04-29T13:14:08.259Z,5.93
2018-04-29T13:16:38.052Z,6.57
2018-04-29T13:19:08.628Z,5.23
2018-04-29T13:21:38.425Z,6.70
2018-04-29T13:24:08.220Z,5.53
2018-04-29T13:26:38.793Z,8.67
2018-04-29T13:29:08.589Z,5.83
2018-04-29T13:31:39.148Z,5.17
2018-04-29T13:34:08.957Z,5.53
2018-04-29T13:36:38.764Z,8.37
2018-04-29T13:39:09.331Z,8.17
2018-04-29T13:41:39.895Z,6.20
2018-04-29T13:44:09.702Z,6.80
2018-04-29T13:46:39.512Z,5.67
2018-04-29T13:49:09.321Z,5.03
2018-04-29T13:51:39.121Z,6.67
2018-04-29T13:54:09.692Z,4.87
2018-04-29T13:56:39.601Z,5.70
2018-04-29T13:59:09.297Z,4.33
2018-04-29T14:01:39.105Z,6.27
2018-04-29T14:04:08.903Z,8.53
2018-04-29T14:06:38.711Z,6.83
2018-04-29T14:09:09.275Z,4.83
2018-04-29T14:11:39.088Z,5.67
2018-04-29T14:14:08.952Z,5.60
2018-04-29T14:16:44.167Z,5.50
2018-04-29T14:19:13.979Z,4.97
2018-04-29T14:21:43.785Z,6.10
2018-04-29T14:24:13.570Z,5.83
2018-04-29T14:26:43.364Z,5.23
2018-04-29T14:29:13.171Z,5.60
2018-04-29T14:31:42.985Z,6.77
2018-04-29T14:34:12.771Z,4.93
2018-04-29T14:36:43.404Z,4.47
2018-04-29T14:39:13.125Z,5.33
2018-04-29T14:41:42.930Z,5.17
2018-04-29T14:44:12.735Z,5.87
2018-04-29T14:46:42.527Z,6.60
2018-04-29T14:49:12.319Z,7.07
2018-04-29T14:51:42.120Z,5.63
2018-04-29T14:54:11.923Z,6.33
2018-04-29T14:56:41.739Z,6.53
2018-04-29T14:59:11.526Z,7.57
2018-04-29T15:01:42.100Z,6.33
2018-04-29T15:04:11.895Z,6.47
2018-04-29T15:06:41.716Z,6.57
2018-04-29T15:09:11.517Z,7.87
2018-04-29T15:11:41.326Z,7.33
2018-04-29T15:14:11.119Z,7.30
2018-04-29T15:16:40.919Z,7.82
2018-04-29T15:19:11.496Z,9.95
2018-04-29T15:21:41.301Z,9.98
2018-04-29T15:24:11.095Z,9.95
2018-04-29T15:26:40.922Z,9.50
2018-04-29T15:29:10.732Z,10.45
2018-04-29T15:31:40.543Z,9.18
2018-04-29T15:34:10.339Z,9.32
2018-04-29T15:36:40.145Z,11.55
2018-04-29T15:39:09.954Z,11.98
2018-04-29T15:41:39.772Z,12.73
2018-04-29T15:44:09.587Z,13.23
2018-04-29T15:46:39.404Z,12.93
2018-04-29T15:49:09.216Z,11.52
2018-04-29T15:51:39.032Z,14.50
2018-04-29T15:54:08.838Z,13.70
2018-04-29T15:56:38.656Z,14.43
2018-04-29T15:59:08.468Z,14.77
2018-04-29T16:01:38.277Z,14.75
2018-04-29T16:04:08.117Z,15.40
2018-04-29T16:06:37.937Z,14.37
2018-04-29T16:09:07.755Z,15.63
2018-04-29T16:11:37.571Z,15.67
2018-04-29T16:14:07.375Z,15.80
2018-04-29T16:16:52.077Z,15.33
2018-04-29T16:19:22.646Z,14.70
2018-04-29T16:21:52.454Z,14.30
2018-04-29T16:24:22.266Z,14.80
2018-04-29T16:26:52.082Z,13.77
2018-04-29T16:29:21.891Z,14.13
2018-04-29T16:31:51.720Z,13.57
2018-04-29T16:34:21.530Z,12.77
2018-04-29T16:36:51.350Z,12.57
2018-04-29T16:39:21.168Z,12.40
2018-04-29T16:41:50.993Z,12.57
2018-04-29T16:44:20.823Z,11.97
2018-04-29T16:46:50.674Z,11.40
2018-04-29T16:49:20.474Z,11.27
2018-04-29T16:51:50.321Z,12.37
2018-04-29T16:54:20.160Z,13.13
2018-04-29T16:56:49.964Z,12.50
2018-04-29T16:59:19.799Z,12.43
2018-04-29T17:01:49.598Z,13.07
2018-04-29T17:04:19.415Z,16.40
2018-04-29T17:06:49.232Z,22.97
2018-04-29T17:09:19.031Z,13.30
2018-04-29T17:11:48.854Z,12.00
2018-04-29T17:14:18.667Z,13.20
2018-04-29T17:16:48.471Z,13.83
2018-04-29T17:19:18.287Z,14.80
2018-04-29T17:21:48.108Z,13.87
2018-04-29T17:24:17.919Z,16.07
2018-04-29T17:26:47.740Z,15.57
2018-04-29T17:29:18.453Z,16.27
2018-04-29T17:31:50.196Z,16.27
2018-04-29T17:34:20.004Z,16.33
2018-04-29T17:36:49.822Z,17.63
2018-04-29T17:39:19.651Z,17.83
2018-04-29T17:41:49.459Z,15.90
2018-04-29T17:44:19.276Z,18.27
2018-04-29T17:46:49.095Z,17.83
2018-04-29T17:49:18.910Z,19.83
2018-04-29T17:51:49.044Z,17.13
2018-04-29T17:54:19.610Z,17.87
2018-04-29T17:56:49.423Z,19.00
2018-04-29T17:59:19.236Z,18.97
2018-04-29T18:01:49.077Z,17.17
2018-04-29T18:04:18.870Z,17.43
2018-04-29T18:06:48.701Z,19.13
2018-04-29T18:09:18.511Z,19.70
2018-04-29T18:11:48.335Z,19.33
2018-04-29T18:14:18.147Z,18.70
2018-04-29T18:16:47.969Z,19.37
2018-04-29T18:19:17.779Z,18.60
2018-04-29T18:21:47.606Z,17.90
2018-04-29T18:24:17.568Z,17.30
2018-04-29T18:26:47.373Z,19.23
2018-04-29T18:29:17.187Z,19.07
2018-04-29T18:31:47.003Z,18.77
2018-04-29T18:34:16.829Z,19.23
2018-04-29T18:36:46.646Z,18.77
2018-04-29T18:39:17.220Z,19.83
2018-04-29T18:41:47.809Z,20.50
2018-04-29T18:44:17.642Z,20.20
2018-04-29T18:46:47.465Z,19.63
2018-04-29T18:49:17.622Z,20.93
2018-04-29T18:51:47.549Z,19.40
2018-04-29T18:54:17.347Z,20.30
2018-04-29T18:56:47.176Z,23.43
2018-04-29T18:59:16.995Z,21.63
2018-04-29T19:01:46.822Z,22.10
2018-04-29T19:04:16.643Z,162.87
2018-04-29T19:06:46.461Z,83.23
2018-04-29T19:09:16.274Z,35.20
2018-04-29T19:11:46.238Z,22.83
2018-04-29T19:14:16.960Z,24.33
2018-04-29T19:16:46.744Z,24.67
2018-04-29T19:19:16.562Z,26.53
2018-04-29T19:21:47.131Z,25.63
2018-04-29T19:24:17.071Z,24.47
2018-04-29T19:26:47.705Z,24.13
2018-04-29T19:29:17.539Z,24.00
2018-04-29T19:31:47.331Z,27.47
2018-04-29T19:34:17.144Z,24.27
2018-04-29T19:36:46.956Z,27.77
2018-04-29T19:39:16.774Z,29.90
2018-04-29T19:41:46.576Z,26.57
2018-04-29T19:44:18.340Z,27.10
2018-04-29T19:46:48.918Z,31.50
2018-04-29T19:49:30.345Z,31.77
2018-04-29T19:52:01.250Z,26.90
2018-04-29T19:54:31.872Z,28.20
2018-04-29T19:57:01.692Z,27.27
2018-04-29T19:59:34.000Z,29.63
2018-04-29T20:02:03.800Z,25.07
2018-04-29T20:04:33.623Z,26.63
2018-04-29T20:07:03.439Z,30.17
2018-04-29T20:09:33.256Z,29.43
2018-04-29T20:12:03.052Z,26.00
2018-04-29T20:14:32.877Z,25.67
2018-04-29T20:17:02.687Z,27.13
2018-04-29T20:19:32.500Z,26.37
2018-04-29T20:22:02.317Z,41.00
2018-04-29T20:24:32.137Z,30.83
2018-04-29T20:27:01.942Z,25.37
2018-04-29T20:29:31.758Z,25.80
2018-04-29T20:32:01.566Z,26.93
2018-04-29T20:34:32.392Z,25.67
2018-04-29T20:37:02.304Z,24.90
2018-04-29T20:39:32.107Z,23.40
2018-04-29T20:42:01.925Z,23.03
2018-04-29T20:44:31.814Z,21.87
2018-04-29T20:47:01.673Z,22.83
2018-04-29T20:49:31.488Z,23.07
2018-04-29T20:52:01.305Z,23.67
2018-04-29T20:54:32.170Z,22.47
2018-04-29T20:57:02.021Z,22.27
2018-04-29T20:59:31.838Z,22.57
2018-04-29T21:02:01.651Z,21.10
2018-04-29T21:04:31.499Z,23.20
2018-04-29T21:07:01.309Z,26.30
2018-04-29T21:09:31.122Z,24.60
2018-04-29T21:12:00.920Z,23.97
2018-04-29T21:14:30.745Z,24.57
2018-04-29T21:17:00.561Z,24.50
2018-04-29T21:19:30.372Z,23.17
2018-04-29T21:22:00.190Z,28.13
2018-04-29T21:24:30.003Z,23.30
2018-04-29T21:26:59.807Z,24.83
2018-04-29T21:29:29.617Z,22.53
2018-04-29T21:31:59.441Z,22.03
2018-04-29T21:34:29.256Z,21.33
2018-04-29T21:36:59.061Z,20.73
2018-04-29T21:39:28.872Z,21.33
2018-04-29T21:41:58.680Z,19.27
2018-04-29T21:44:28.496Z,20.93
2018-04-29T21:46:58.299Z,21.67
2018-04-29T21:49:28.139Z,19.67
2018-04-29T21:51:58.700Z,21.03
2018-04-29T21:54:28.514Z,17.87
2018-04-29T21:56:58.317Z,18.07
2018-04-29T21:59:28.119Z,17.87
2018-04-29T22:01:58.717Z,16.27
2018-04-29T22:04:28.535Z,18.33
2018-04-29T22:06:58.342Z,16.00
2018-04-29T22:09:28.182Z,17.03
2018-04-29T22:11:58.770Z,16.17
2018-04-29T22:14:28.580Z,18.33
2018-04-29T22:16:58.395Z,16.57
2018-04-29T22:19:28.228Z,18.17
2018-04-29T22:21:58.110Z,15.67
2018-04-29T22:24:27.911Z,14.57
2018-04-29T22:26:57.715Z,14.57
2018-04-29T22:29:27.535Z,16.20
2018-04-29T22:31:57.343Z,14.43
2018-04-29T22:34:27.147Z,14.13
2018-04-29T22:36:56.949Z,13.20
2018-04-29T22:39:26.759Z,11.90
2018-04-29T22:41:56.561Z,14.73
2018-04-29T22:44:26.371Z,12.57
2018-04-29T22:46:56.181Z,10.90
2018-04-29T22:49:26.752Z,11.03
2018-04-29T22:51:56.567Z,11.87
2018-04-29T22:54:26.379Z,13.07
2018-04-29T22:56:56.183Z,11.07
2018-04-29T22:59:25.996Z,10.50
2018-04-29T23:01:55.795Z,10.30
2018-04-29T23:04:25.654Z,11.10
2018-04-29T23:06:55.407Z,12.13
2018-04-29T23:09:25.212Z,11.83
2018-04-29T23:11:55.785Z,14.87
2018-04-29T23:14:25.601Z,13.53
2018-04-29T23:16:55.420Z,10.80
2018-04-29T23:19:25.219Z,11.53
2018-04-29T23:21:55.020Z,14.90
2018-04-29T23:24:24.830Z,9.33
2018-04-29T23:26:54.638Z,13.60
2018-04-29T23:29:24.453Z,10.27
2018-04-29T23:31:54.251Z,11.60
2018-04-29T23:34:24.064Z,11.50
2018-04-29T23:36:53.866Z,11.20
2018-04-29T23:39:23.715Z,10.27
2018-04-29T23:41:53.540Z,9.87
2018-04-29T23:44:23.331Z,11.20
2018-04-29T23:46:53.127Z,9.90
2018-04-29T23:49:22.925Z,10.50
2018-04-29T23:51:53.491Z,10.20
2018-04-29T23:54:23.282Z,10.77
2018-04-29T23:56:53.139Z,11.00
2018-04-29T23:59:22.943Z,10.87
